sensor_id;sensor_type;location;lat;lon;timestamp;temperature;humidity
23729;DHT22;12045;60.214;24.724;2023-04-15T00:01:43;2.70;77.00
23729;DHT22;12045;60.214;24.724;2023-04-15T00:04:11;3.00;77.30
23729;DHT22;12045;60.214;24.724;2023-04-15T00:06:38;3.00;77.70
23729;DHT22;12045;60.214;24.724;2023-04-15T00:09:06;3.40;78.10
23729;DHT22;12045;60.214;24.724;2023-04-15T00:11:33;3.80;78.50
23729;DHT22;12045;60.214;24.724;2023-04-15T00:14:02;4.10;78.80
23729;DHT22;12045;60.214;24.724;2023-04-15T00:16:29;4.30;79.40
23729;DHT22;12045;60.214;24.724;2023-04-15T00:18:57;4.50;79.80
23729;DHT22;12045;60.214;24.724;2023-04-15T00:21:25;3.50;79.50
23729;DHT22;12045;60.214;24.724;2023-04-15T00:23:53;3.40;79.60
23729;DHT22;12045;60.214;24.724;2023-04-15T00:26:21;5.30;81.00
23729;DHT22;12045;60.214;24.724;2023-04-15T00:28:49;4.10;80.40
23729;DHT22;12045;60.214;24.724;2023-04-15T00:31:16;4.60;80.80
23729;DHT22;12045;60.214;24.724;2023-04-15T00:33:44;2.80;80.10
23729;DHT22;12045;60.214;24.724;2023-04-15T00:36:11;4.10;81.30
23729;DHT22;12045;60.214;24.724;2023-04-15T00:38:38;3.20;81.00
23729;DHT22;12045;60.214;24.724;2023-04-15T00:41:06;4.10;81.70
23729;DHT22;12045;60.214;24.724;2023-04-15T00:43:33;2.70;80.80
23729;DHT22;12045;60.214;24.724;2023-04-15T00:46:03;4.80;82.10
23729;DHT22;12045;60.214;24.724;2023-04-15T00:48:32;2.50;80.80
23729;DHT22;12045;60.214;24.724;2023-04-15T00:50:59;2.90;81.20
23729;DHT22;12045;60.214;24.724;2023-04-15T00:53:27;5.40;82.60
23729;DHT22;12045;60.214;24.724;2023-04-15T00:55:54;3.60;81.90
23729;DHT22;12045;60.214;24.724;2023-04-15T00:58:22;1.90;81.40
23729;DHT22;12045;60.214;24.724;2023-04-15T01:00:50;3.10;82.10
23729;DHT22;12045;60.214;24.724;2023-04-15T01:03:20;4.00;82.80
23729;DHT22;12045;60.214;24.724;2023-04-15T01:05:48;2.60;82.10
23729;DHT22;12045;60.214;24.724;2023-04-15T01:08:16;4.60;83.40
23729;DHT22;12045;60.214;24.724;2023-04-15T01:10:44;4.60;83.40
23729;DHT22;12045;60.214;24.724;2023-04-15T01:13:11;3.50;83.30
23729;DHT22;12045;60.214;24.724;2023-04-15T01:15:39;2.50;82.90
23729;DHT22;12045;60.214;24.724;2023-04-15T01:18:08;3.20;83.30
23729;DHT22;12045;60.214;24.724;2023-04-15T01:20:36;3.00;83.40
23729;DHT22;12045;60.214;24.724;2023-04-15T01:23:03;3.70;84.30
23729;DHT22;12045;60.214;24.724;2023-04-15T01:25:33;3.50;84.20
23729;DHT22;12045;60.214;24.724;2023-04-15T01:28:01;4.40;84.90
23729;DHT22;12045;60.214;24.724;2023-04-15T01:30:33;2.20;83.60
23729;DHT22;12045;60.214;24.724;2023-04-15T01:33:00;3.00;84.40
23729;DHT22;12045;60.214;24.724;2023-04-15T01:35:28;2.40;84.40
23729;DHT22;12045;60.214;24.724;2023-04-15T01:38:02;4.30;85.90
23729;DHT22;12045;60.214;24.724;2023-04-15T01:40:32;2.50;85.20
23729;DHT22;12045;60.214;24.724;2023-04-15T01:43:02;3.50;85.30
23729;DHT22;12045;60.214;24.724;2023-04-15T01:45:30;4.40;85.90
23729;DHT22;12045;60.214;24.724;2023-04-15T01:47:57;2.90;85.30
23729;DHT22;12045;60.214;24.724;2023-04-15T01:50:25;4.20;86.40
23729;DHT22;12045;60.214;24.724;2023-04-15T01:52:53;5.00;87.20
23729;DHT22;12045;60.214;24.724;2023-04-15T01:55:20;2.40;86.10
23729;DHT22;12045;60.214;24.724;2023-04-15T01:57:48;3.20;86.50
23729;DHT22;12045;60.214;24.724;2023-04-15T02:00:15;2.80;86.60
23729;DHT22;12045;60.214;24.724;2023-04-15T02:02:43;2.30;86.60
23729;DHT22;12045;60.214;24.724;2023-04-15T02:05:11;3.80;87.80
23729;DHT22;12045;60.214;24.724;2023-04-15T02:07:39;3.50;87.70
23729;DHT22;12045;60.214;24.724;2023-04-15T02:10:06;3.90;88.00
23729;DHT22;12045;60.214;24.724;2023-04-15T02:12:35;2.30;87.30
23729;DHT22;12045;60.214;24.724;2023-04-15T02:15:03;4.10;88.70
23729;DHT22;12045;60.214;24.724;2023-04-15T02:17:33;2.30;88.00
23729;DHT22;12045;60.214;24.724;2023-04-15T02:20:02;4.30;89.30
23729;DHT22;12045;60.214;24.724;2023-04-15T02:22:32;2.30;88.30
23729;DHT22;12045;60.214;24.724;2023-04-15T02:24:59;2.90;88.70
23729;DHT22;12045;60.214;24.724;2023-04-15T02:27:27;2.50;88.60
23729;DHT22;12045;60.214;24.724;2023-04-15T02:29:55;4.10;89.90
23729;DHT22;12045;60.214;24.724;2023-04-15T02:32:22;2.20;89.00
23729;DHT22;12045;60.214;24.724;2023-04-15T02:34:51;2.20;89.20
23729;DHT22;12045;60.214;24.724;2023-04-15T02:37:18;3.30;90.00
23729;DHT22;12045;60.214;24.724;2023-04-15T02:39:46;3.60;90.10
23729;DHT22;12045;60.214;24.724;2023-04-15T02:42:14;4.90;90.60
23729;DHT22;12045;60.214;24.724;2023-04-15T02:44:41;4.00;90.30
23729;DHT22;12045;60.214;24.724;2023-04-15T02:47:09;3.10;90.00
23729;DHT22;12045;60.214;24.724;2023-04-15T02:49:38;4.30;90.50
23729;DHT22;12045;60.214;24.724;2023-04-15T02:52:06;2.30;90.00
23729;DHT22;12045;60.214;24.724;2023-04-15T02:54:33;2.20;90.10
23729;DHT22;12045;60.214;24.724;2023-04-15T02:57:01;2.30;90.20
23729;DHT22;12045;60.214;24.724;2023-04-15T02:59:29;1.40;90.10
23729;DHT22;12045;60.214;24.724;2023-04-15T03:01:56;4.40;91.10
23729;DHT22;12045;60.214;24.724;2023-04-15T03:04:27;2.70;90.70
23729;DHT22;12045;60.214;24.724;2023-04-15T03:06:56;4.40;91.30
23729;DHT22;12045;60.214;24.724;2023-04-15T03:09:23;3.90;91.20
23729;DHT22;12045;60.214;24.724;2023-04-15T03:11:51;2.80;91.00
23729;DHT22;12045;60.214;24.724;2023-04-15T03:14:20;3.30;91.20
23729;DHT22;12045;60.214;24.724;2023-04-15T03:16:48;2.70;91.00
23729;DHT22;12045;60.214;24.724;2023-04-15T03:19:18;3.90;91.40
23729;DHT22;12045;60.214;24.724;2023-04-15T03:21:45;2.90;91.30
23729;DHT22;12045;60.214;24.724;2023-04-15T03:24:12;3.30;91.50
23729;DHT22;12045;60.214;24.724;2023-04-15T03:26:40;2.80;91.40
23729;DHT22;12045;60.214;24.724;2023-04-15T03:29:07;2.50;91.40
23729;DHT22;12045;60.214;24.724;2023-04-15T03:31:35;3.10;91.60
23729;DHT22;12045;60.214;24.724;2023-04-15T03:34:02;2.60;91.60
23729;DHT22;12045;60.214;24.724;2023-04-15T03:36:30;2.60;91.60
23729;DHT22;12045;60.214;24.724;2023-04-15T03:38:59;3.60;92.00
23729;DHT22;12045;60.214;24.724;2023-04-15T03:41:28;3.10;91.90
23729;DHT22;12045;60.214;24.724;2023-04-15T03:43:56;4.10;92.40
23729;DHT22;12045;60.214;24.724;2023-04-15T03:46:23;2.90;92.10
23729;DHT22;12045;60.214;24.724;2023-04-15T03:48:51;2.00;91.90
23729;DHT22;12045;60.214;24.724;2023-04-15T03:51:18;2.00;92.00
23729;DHT22;12045;60.214;24.724;2023-04-15T03:53:46;2.00;92.10
23729;DHT22;12045;60.214;24.724;2023-04-15T03:56:13;3.10;92.40
23729;DHT22;12045;60.214;24.724;2023-04-15T03:58:40;2.20;92.20
23729;DHT22;12045;60.214;24.724;2023-04-15T04:01:08;2.10;92.20
23729;DHT22;12045;60.214;24.724;2023-04-15T04:03:35;3.50;92.60
23729;DHT22;12045;60.214;24.724;2023-04-15T04:06:04;2.50;92.40
23729;DHT22;12045;60.214;24.724;2023-04-15T04:08:31;2.10;92.30
23729;DHT22;12045;60.214;24.724;2023-04-15T04:10:58;3.80;93.00
23729;DHT22;12045;60.214;24.724;2023-04-15T04:13:26;3.00;92.20
23729;DHT22;12045;60.214;24.724;2023-04-15T04:15:53;3.70;92.80
23729;DHT22;12045;60.214;24.724;2023-04-15T04:18:21;2.20;92.50
23729;DHT22;12045;60.214;24.724;2023-04-15T04:20:49;2.20;92.30
23729;DHT22;12045;60.214;24.724;2023-04-15T04:23:16;4.10;92.70
23729;DHT22;12045;60.214;24.724;2023-04-15T04:25:44;1.70;92.10
23729;DHT22;12045;60.214;24.724;2023-04-15T04:28:11;4.20;92.80
23729;DHT22;12045;60.214;24.724;2023-04-15T04:30:39;3.10;92.60
23729;DHT22;12045;60.214;24.724;2023-04-15T04:33:07;3.90;92.70
23729;DHT22;12045;60.214;24.724;2023-04-15T04:35:35;5.10;92.90
23729;DHT22;12045;60.214;24.724;2023-04-15T04:38:04;2.70;92.20
23729;DHT22;12045;60.214;24.724;2023-04-15T04:40:31;5.20;92.80
23729;DHT22;12045;60.214;24.724;2023-04-15T04:42:59;3.40;92.20
23729;DHT22;12045;60.214;24.724;2023-04-15T04:45:26;3.70;92.20
23729;DHT22;12045;60.214;24.724;2023-04-15T04:47:54;5.30;92.50
23729;DHT22;12045;60.214;24.724;2023-04-15T04:50:21;4.00;92.10
23729;DHT22;12045;60.214;24.724;2023-04-15T04:52:49;3.20;91.90
23729;DHT22;12045;60.214;24.724;2023-04-15T04:55:19;5.00;92.30
23729;DHT22;12045;60.214;24.724;2023-04-15T04:57:46;3.00;91.50
23729;DHT22;12045;60.214;24.724;2023-04-15T05:00:14;3.10;91.50
23729;DHT22;12045;60.214;24.724;2023-04-15T05:02:41;3.10;91.50
23729;DHT22;12045;60.214;24.724;2023-04-15T05:05:10;3.20;91.40
23729;DHT22;12045;60.214;24.724;2023-04-15T05:07:38;3.30;91.40
23729;DHT22;12045;60.214;24.724;2023-04-15T05:10:06;4.90;91.70
23729;DHT22;12045;60.214;24.724;2023-04-15T05:12:35;3.60;91.40
23729;DHT22;12045;60.214;24.724;2023-04-15T05:15:05;3.80;91.40
23729;DHT22;12045;60.214;24.724;2023-04-15T05:17:32;3.50;91.20
23729;DHT22;12045;60.214;24.724;2023-04-15T05:20:02;3.60;91.10
23729;DHT22;12045;60.214;24.724;2023-04-15T05:22:30;3.70;91.00
23729;DHT22;12045;60.214;24.724;2023-04-15T05:24:57;4.40;90.90
23729;DHT22;12045;60.214;24.724;2023-04-15T05:27:25;5.00;91.10
23729;DHT22;12045;60.214;24.724;2023-04-15T05:29:53;3.90;90.80
23729;DHT22;12045;60.214;24.724;2023-04-15T05:32:20;4.90;90.80
23729;DHT22;12045;60.214;24.724;2023-04-15T05:34:48;3.70;90.40
23729;DHT22;12045;60.214;24.724;2023-04-15T05:37:15;5.20;90.50
23729;DHT22;12045;60.214;24.724;2023-04-15T05:39:42;4.70;90.40
23729;DHT22;12045;60.214;24.724;2023-04-15T05:42:10;5.90;90.50
23729;DHT22;12045;60.214;24.724;2023-04-15T05:44:38;4.70;90.10
23729;DHT22;12045;60.214;24.724;2023-04-15T05:47:05;5.00;89.50
23729;DHT22;12045;60.214;24.724;2023-04-15T05:49:34;5.70;89.60
23729;DHT22;12045;60.214;24.724;2023-04-15T05:52:01;6.10;89.50
23729;DHT22;12045;60.214;24.724;2023-04-15T05:54:29;5.30;89.10
23729;DHT22;12045;60.214;24.724;2023-04-15T05:56:56;5.20;88.50
23729;DHT22;12045;60.214;24.724;2023-04-15T05:59:24;4.80;88.20
23729;DHT22;12045;60.214;24.724;2023-04-15T06:01:52;4.90;87.60
23729;DHT22;12045;60.214;24.724;2023-04-15T06:04:20;6.40;88.40
23729;DHT22;12045;60.214;24.724;2023-04-15T06:06:48;6.20;87.00
23729;DHT22;12045;60.214;24.724;2023-04-15T06:09:15;5.30;85.80
23729;DHT22;12045;60.214;24.724;2023-04-15T06:11:43;4.80;85.50
23729;DHT22;12045;60.214;24.724;2023-04-15T06:14:10;6.10;85.50
23729;DHT22;12045;60.214;24.724;2023-04-15T06:16:38;5.70;83.80
23729;DHT22;12045;60.214;24.724;2023-04-15T06:19:05;5.60;84.10
23729;DHT22;12045;60.214;24.724;2023-04-15T06:21:33;6.00;83.70
23729;DHT22;12045;60.214;24.724;2023-04-15T06:24:00;5.30;82.40
23729;DHT22;12045;60.214;24.724;2023-04-15T06:26:28;5.80;82.40
23729;DHT22;12045;60.214;24.724;2023-04-15T06:28:56;6.00;81.90
23729;DHT22;12045;60.214;24.724;2023-04-15T06:31:23;6.10;82.00
23729;DHT22;12045;60.214;24.724;2023-04-15T06:33:50;5.90;81.80
23729;DHT22;12045;60.214;24.724;2023-04-15T06:36:18;6.20;81.80
23729;DHT22;12045;60.214;24.724;2023-04-15T06:38:45;6.10;80.10
23729;DHT22;12045;60.214;24.724;2023-04-15T06:41:13;6.50;80.50
23729;DHT22;12045;60.214;24.724;2023-04-15T06:43:40;6.20;80.10
23729;DHT22;12045;60.214;24.724;2023-04-15T06:46:07;6.30;79.40
23729;DHT22;12045;60.214;24.724;2023-04-15T06:48:35;6.40;79.50
23729;DHT22;12045;60.214;24.724;2023-04-15T06:51:03;7.40;79.40
23729;DHT22;12045;60.214;24.724;2023-04-15T06:53:30;6.10;77.50
23729;DHT22;12045;60.214;24.724;2023-04-15T06:55:58;6.60;78.70
23729;DHT22;12045;60.214;24.724;2023-04-15T06:58:25;6.90;78.30
23729;DHT22;12045;60.214;24.724;2023-04-15T07:00:53;6.30;77.60
23729;DHT22;12045;60.214;24.724;2023-04-15T07:03:20;6.80;78.30
23729;DHT22;12045;60.214;24.724;2023-04-15T07:05:48;7.00;77.20
23729;DHT22;12045;60.214;24.724;2023-04-15T07:08:16;6.90;76.20
23729;DHT22;12045;60.214;24.724;2023-04-15T07:10:43;7.00;75.80
23729;DHT22;12045;60.214;24.724;2023-04-15T07:20:37;7.40;74.00
23729;DHT22;12045;60.214;24.724;2023-04-15T07:23:05;7.60;74.00
23729;DHT22;12045;60.214;24.724;2023-04-15T07:25:32;7.40;73.50
23729;DHT22;12045;60.214;24.724;2023-04-15T07:27:59;7.50;74.00
23729;DHT22;12045;60.214;24.724;2023-04-15T07:30:28;7.50;73.30
23729;DHT22;12045;60.214;24.724;2023-04-15T07:32:57;7.40;73.50
23729;DHT22;12045;60.214;24.724;2023-04-15T07:35:25;6.90;72.50
23729;DHT22;12045;60.214;24.724;2023-04-15T07:37:53;7.50;73.20
23729;DHT22;12045;60.214;24.724;2023-04-15T07:40:21;7.10;72.00
23729;DHT22;12045;60.214;24.724;2023-04-15T07:42:48;8.90;73.70
23729;DHT22;12045;60.214;24.724;2023-04-15T07:45:16;7.60;71.90
23729;DHT22;12045;60.214;24.724;2023-04-15T07:47:44;7.50;71.90
23729;DHT22;12045;60.214;24.724;2023-04-15T07:50:12;7.70;72.00
23729;DHT22;12045;60.214;24.724;2023-04-15T07:52:39;7.60;71.60
23729;DHT22;12045;60.214;24.724;2023-04-15T07:55:08;8.70;72.10
23729;DHT22;12045;60.214;24.724;2023-04-15T07:57:36;7.70;71.00
23729;DHT22;12045;60.214;24.724;2023-04-15T08:00:04;6.70;70.30
23729;DHT22;12045;60.214;24.724;2023-04-15T08:02:34;7.60;70.50
23729;DHT22;12045;60.214;24.724;2023-04-15T08:05:05;7.60;69.70
23729;DHT22;12045;60.214;24.724;2023-04-15T08:07:33;7.60;70.40
23729;DHT22;12045;60.214;24.724;2023-04-15T08:10:01;7.60;70.80
23729;DHT22;12045;60.214;24.724;2023-04-15T08:12:29;7.50;70.90
23729;DHT22;12045;60.214;24.724;2023-04-15T08:14:56;7.60;70.90
23729;DHT22;12045;60.214;24.724;2023-04-15T08:17:24;7.70;70.60
23729;DHT22;12045;60.214;24.724;2023-04-15T08:19:51;7.70;70.40
23729;DHT22;12045;60.214;24.724;2023-04-15T08:22:19;7.50;69.90
23729;DHT22;12045;60.214;24.724;2023-04-15T08:24:48;7.70;70.10
23729;DHT22;12045;60.214;24.724;2023-04-15T08:27:16;7.70;70.00
23729;DHT22;12045;60.214;24.724;2023-04-15T08:29:43;7.70;70.10
23729;DHT22;12045;60.214;24.724;2023-04-15T08:32:12;7.80;70.80
23729;DHT22;12045;60.214;24.724;2023-04-15T08:34:39;8.10;69.60
23729;DHT22;12045;60.214;24.724;2023-04-15T08:37:07;8.10;69.60
23729;DHT22;12045;60.214;24.724;2023-04-15T08:39:36;8.00;69.00
23729;DHT22;12045;60.214;24.724;2023-04-15T08:42:09;8.00;68.70
23729;DHT22;12045;60.214;24.724;2023-04-15T08:44:37;8.10;69.20
23729;DHT22;12045;60.214;24.724;2023-04-15T08:47:07;8.00;69.40
23729;DHT22;12045;60.214;24.724;2023-04-15T08:49:39;8.10;69.90
23729;DHT22;12045;60.214;24.724;2023-04-15T08:52:10;8.10;68.80
23729;DHT22;12045;60.214;24.724;2023-04-15T08:54:38;8.10;69.20
23729;DHT22;12045;60.214;24.724;2023-04-15T08:57:06;8.20;69.90
23729;DHT22;12045;60.214;24.724;2023-04-15T08:59:34;8.40;69.80
23729;DHT22;12045;60.214;24.724;2023-04-15T09:02:03;8.50;69.50
23729;DHT22;12045;60.214;24.724;2023-04-15T09:04:32;8.60;69.00
23729;DHT22;12045;60.214;24.724;2023-04-15T09:07:00;8.50;69.20
23729;DHT22;12045;60.214;24.724;2023-04-15T09:09:28;9.10;69.10
23729;DHT22;12045;60.214;24.724;2023-04-15T09:11:55;8.40;68.90
23729;DHT22;12045;60.214;24.724;2023-04-15T09:14:23;7.60;69.40
23729;DHT22;12045;60.214;24.724;2023-04-15T09:16:58;8.50;69.20
23729;DHT22;12045;60.214;24.724;2023-04-15T09:19:26;8.50;68.50
23729;DHT22;12045;60.214;24.724;2023-04-15T09:21:55;10.00;69.50
23729;DHT22;12045;60.214;24.724;2023-04-15T09:24:34;9.90;68.90
23729;DHT22;12045;60.214;24.724;2023-04-15T09:27:03;8.70;68.00
23729;DHT22;12045;60.214;24.724;2023-04-15T09:29:31;8.80;67.10
23729;DHT22;12045;60.214;24.724;2023-04-15T09:32:12;8.80;67.00
23729;DHT22;12045;60.214;24.724;2023-04-15T09:34:40;9.00;68.00
23729;DHT22;12045;60.214;24.724;2023-04-15T09:37:08;9.10;67.20
23729;DHT22;12045;60.214;24.724;2023-04-15T09:39:50;9.00;66.60
23729;DHT22;12045;60.214;24.724;2023-04-15T09:42:20;9.10;67.10
23729;DHT22;12045;60.214;24.724;2023-04-15T09:44:51;9.30;66.90
23729;DHT22;12045;60.214;24.724;2023-04-15T09:47:31;8.80;66.50
23729;DHT22;12045;60.214;24.724;2023-04-15T09:49:59;9.50;66.60
23729;DHT22;12045;60.214;24.724;2023-04-15T09:52:29;9.40;65.50
23729;DHT22;12045;60.214;24.724;2023-04-15T09:54:57;8.90;66.00
23729;DHT22;12045;60.214;24.724;2023-04-15T09:57:34;9.40;66.70
23729;DHT22;12045;60.214;24.724;2023-04-15T10:00:06;9.60;66.20
23729;DHT22;12045;60.214;24.724;2023-04-15T10:02:34;9.80;66.10
23729;DHT22;12045;60.214;24.724;2023-04-15T10:05:03;9.90;64.10
23729;DHT22;12045;60.214;24.724;2023-04-15T10:07:31;9.90;63.30
23729;DHT22;12045;60.214;24.724;2023-04-15T10:10:00;10.30;95.60
23729;DHT22;12045;60.214;24.724;2023-04-15T10:12:29;10.20;93.10
23729;DHT22;12045;60.214;24.724;2023-04-15T10:15:03;9.90;62.10
23729;DHT22;12045;60.214;24.724;2023-04-15T10:17:32;10.50;61.90
23729;DHT22;12045;60.214;24.724;2023-04-15T10:20:03;11.30;61.70
23729;DHT22;12045;60.214;24.724;2023-04-15T10:22:32;10.90;59.90
23729;DHT22;12045;60.214;24.724;2023-04-15T10:24:59;10.90;59.50
23729;DHT22;12045;60.214;24.724;2023-04-15T10:27:29;10.80;60.30
23729;DHT22;12045;60.214;24.724;2023-04-15T10:29:59;10.20;59.80
23729;DHT22;12045;60.214;24.724;2023-04-15T10:32:27;10.90;59.30
23729;DHT22;12045;60.214;24.724;2023-04-15T10:34:55;11.20;59.30
23729;DHT22;12045;60.214;24.724;2023-04-15T10:37:37;11.40;59.10
23729;DHT22;12045;60.214;24.724;2023-04-15T10:40:28;11.60;58.00
23729;DHT22;12045;60.214;24.724;2023-04-15T10:43:02;11.70;58.50
23729;DHT22;12045;60.214;24.724;2023-04-15T10:45:36;12.30;92.60
23729;DHT22;12045;60.214;24.724;2023-04-15T10:48:06;12.20;92.80
23729;DHT22;12045;60.214;24.724;2023-04-15T10:50:36;11.90;81.90
23729;DHT22;12045;60.214;24.724;2023-04-15T10:53:04;12.60;65.80
23729;DHT22;12045;60.214;24.724;2023-04-15T10:55:33;12.50;65.90
23729;DHT22;12045;60.214;24.724;2023-04-15T10:58:01;12.00;66.30
23729;DHT22;12045;60.214;24.724;2023-04-15T11:00:30;12.10;68.50
23729;DHT22;12045;60.214;24.724;2023-04-15T11:03:04;12.40;69.00
23729;DHT22;12045;60.214;24.724;2023-04-15T11:08:06;11.90;68.40
23729;DHT22;12045;60.214;24.724;2023-04-15T11:13:15;12.20;67.00
23729;DHT22;12045;60.214;24.724;2023-04-15T11:15:45;12.30;67.70
23729;DHT22;12045;60.214;24.724;2023-04-15T11:18:18;12.40;67.90
23729;DHT22;12045;60.214;24.724;2023-04-15T11:20:51;12.10;67.00
23729;DHT22;12045;60.214;24.724;2023-04-15T11:23:40;12.00;67.00
23729;DHT22;12045;60.214;24.724;2023-04-15T11:26:10;12.10;67.30
23729;DHT22;12045;60.214;24.724;2023-04-15T11:28:45;12.10;66.90
23729;DHT22;12045;60.214;24.724;2023-04-15T11:31:14;12.20;66.80
23729;DHT22;12045;60.214;24.724;2023-04-15T11:33:52;12.40;67.40
23729;DHT22;12045;60.214;24.724;2023-04-15T11:36:23;12.30;67.20
23729;DHT22;12045;60.214;24.724;2023-04-15T11:38:53;12.40;67.00
23729;DHT22;12045;60.214;24.724;2023-04-15T11:41:22;12.10;67.90
23729;DHT22;12045;60.214;24.724;2023-04-15T11:43:50;12.40;68.30
23729;DHT22;12045;60.214;24.724;2023-04-15T11:46:19;12.00;66.40
23729;DHT22;12045;60.214;24.724;2023-04-15T11:48:47;12.20;67.80
23729;DHT22;12045;60.214;24.724;2023-04-15T11:51:15;12.20;68.30
23729;DHT22;12045;60.214;24.724;2023-04-15T11:53:46;12.20;67.10
23729;DHT22;12045;60.214;24.724;2023-04-15T11:56:24;11.70;67.40
23729;DHT22;12045;60.214;24.724;2023-04-15T11:58:57;12.30;66.70
23729;DHT22;12045;60.214;24.724;2023-04-15T12:01:36;12.10;67.20
23729;DHT22;12045;60.214;24.724;2023-04-15T12:04:13;12.30;67.90
23729;DHT22;12045;60.214;24.724;2023-04-15T12:06:42;12.40;68.40
23729;DHT22;12045;60.214;24.724;2023-04-15T12:09:11;12.10;67.20
23729;DHT22;12045;60.214;24.724;2023-04-15T12:11:41;12.00;69.90
23729;DHT22;12045;60.214;24.724;2023-04-15T12:16:54;11.50;68.60
23729;DHT22;12045;60.214;24.724;2023-04-15T12:19:27;11.60;69.80
23729;DHT22;12045;60.214;24.724;2023-04-15T12:22:00;11.50;70.10
23729;DHT22;12045;60.214;24.724;2023-04-15T12:24:31;11.40;70.80
23729;DHT22;12045;60.214;24.724;2023-04-15T12:27:12;11.40;71.10
23729;DHT22;12045;60.214;24.724;2023-04-15T12:29:41;11.50;70.70
23729;DHT22;12045;60.214;24.724;2023-04-15T12:32:13;11.80;71.50
23729;DHT22;12045;60.214;24.724;2023-04-15T12:34:44;11.90;72.60
23729;DHT22;12045;60.214;24.724;2023-04-15T12:37:16;12.20;71.80
23729;DHT22;12045;60.214;24.724;2023-04-15T12:39:48;11.50;71.60
23729;DHT22;12045;60.214;24.724;2023-04-15T12:42:16;11.50;73.20
23729;DHT22;12045;60.214;24.724;2023-04-15T12:44:44;11.20;72.60
23729;DHT22;12045;60.214;24.724;2023-04-15T12:47:12;11.20;73.40
23729;DHT22;12045;60.214;24.724;2023-04-15T12:49:40;11.50;74.30
23729;DHT22;12045;60.214;24.724;2023-04-15T12:52:08;10.80;74.40
23729;DHT22;12045;60.214;24.724;2023-04-15T12:54:35;11.20;73.60
23729;DHT22;12045;60.214;24.724;2023-04-15T12:57:03;11.10;74.00
23729;DHT22;12045;60.214;24.724;2023-04-15T12:59:34;11.10;72.90
23729;DHT22;12045;60.214;24.724;2023-04-15T13:02:02;11.20;75.00
23729;DHT22;12045;60.214;24.724;2023-04-15T13:04:31;10.70;74.10
23729;DHT22;12045;60.214;24.724;2023-04-15T13:07:00;10.40;73.20
23729;DHT22;12045;60.214;24.724;2023-04-15T13:09:27;10.50;75.00
23729;DHT22;12045;60.214;24.724;2023-04-15T13:11:55;10.20;74.90
23729;DHT22;12045;60.214;24.724;2023-04-15T13:14:23;10.20;75.00
23729;DHT22;12045;60.214;24.724;2023-04-15T13:16:51;9.70;76.50
23729;DHT22;12045;60.214;24.724;2023-04-15T13:19:20;9.50;76.10
23729;DHT22;12045;60.214;24.724;2023-04-15T13:21:47;9.30;75.50
23729;DHT22;12045;60.214;24.724;2023-04-15T13:24:15;9.30;75.80
23729;DHT22;12045;60.214;24.724;2023-04-15T13:26:42;9.30;76.50
23729;DHT22;12045;60.214;24.724;2023-04-15T13:29:10;9.20;76.90
23729;DHT22;12045;60.214;24.724;2023-04-15T13:31:38;9.10;76.50
23729;DHT22;12045;60.214;24.724;2023-04-15T13:34:05;9.30;76.10
23729;DHT22;12045;60.214;24.724;2023-04-15T13:36:33;8.80;73.70
23729;DHT22;12045;60.214;24.724;2023-04-15T13:39:01;9.00;73.80
23729;DHT22;12045;60.214;24.724;2023-04-15T13:41:29;8.70;74.50
23729;DHT22;12045;60.214;24.724;2023-04-15T13:43:57;8.80;76.30
23729;DHT22;12045;60.214;24.724;2023-04-15T13:46:24;8.90;79.70
23729;DHT22;12045;60.214;24.724;2023-04-15T13:48:52;9.00;83.10
23729;DHT22;12045;60.214;24.724;2023-04-15T13:51:19;9.20;84.90
23729;DHT22;12045;60.214;24.724;2023-04-15T13:53:47;9.10;87.10
23729;DHT22;12045;60.214;24.724;2023-04-15T13:56:14;9.10;88.70
23729;DHT22;12045;60.214;24.724;2023-04-15T13:58:41;9.10;90.60
23729;DHT22;12045;60.214;24.724;2023-04-15T14:01:09;9.20;90.40
23729;DHT22;12045;60.214;24.724;2023-04-15T14:06:08;9.20;92.30
23729;DHT22;12045;60.214;24.724;2023-04-15T14:55:28;8.80;76.00
23729;DHT22;12045;60.214;24.724;2023-04-15T14:57:55;8.60;57.50
23729;DHT22;12045;60.214;24.724;2023-04-15T15:00:23;8.60;57.50
23729;DHT22;12045;60.214;24.724;2023-04-15T15:02:53;8.60;57.70
23729;DHT22;12045;60.214;24.724;2023-04-15T15:05:21;8.90;57.80
23729;DHT22;12045;60.214;24.724;2023-04-15T15:07:49;8.40;58.40
23729;DHT22;12045;60.214;24.724;2023-04-15T15:10:16;8.50;57.90
23729;DHT22;12045;60.214;24.724;2023-04-15T15:13:05;8.50;58.40
23729;DHT22;12045;60.214;24.724;2023-04-15T15:15:33;8.50;58.60
23729;DHT22;12045;60.214;24.724;2023-04-15T15:18:01;8.50;58.40
23729;DHT22;12045;60.214;24.724;2023-04-15T15:20:30;8.40;58.60
23729;DHT22;12045;60.214;24.724;2023-04-15T15:22:57;8.30;58.60
23729;DHT22;12045;60.214;24.724;2023-04-15T15:25:25;8.20;58.10
23729;DHT22;12045;60.214;24.724;2023-04-15T15:27:52;8.00;58.00
23729;DHT22;12045;60.214;24.724;2023-04-15T15:30:20;8.60;58.70
23729;DHT22;12045;60.214;24.724;2023-04-15T15:32:47;7.90;58.50
23729;DHT22;12045;60.214;24.724;2023-04-15T15:35:15;7.90;58.70
23729;DHT22;12045;60.214;24.724;2023-04-15T15:37:43;7.90;58.90
23729;DHT22;12045;60.214;24.724;2023-04-15T15:40:11;8.00;59.20
23729;DHT22;12045;60.214;24.724;2023-04-15T15:42:39;8.00;59.50
23729;DHT22;12045;60.214;24.724;2023-04-15T15:45:06;8.20;59.20
23729;DHT22;12045;60.214;24.724;2023-04-15T15:47:34;8.00;59.20
23729;DHT22;12045;60.214;24.724;2023-04-15T15:50:02;8.20;59.30
23729;DHT22;12045;60.214;24.724;2023-04-15T15:52:32;8.10;58.90
23729;DHT22;12045;60.214;24.724;2023-04-15T15:54:59;8.10;58.80
23729;DHT22;12045;60.214;24.724;2023-04-15T15:57:28;8.00;59.00
23729;DHT22;12045;60.214;24.724;2023-04-15T15:59:55;8.00;58.80
23729;DHT22;12045;60.214;24.724;2023-04-15T16:02:37;8.00;59.20
23729;DHT22;12045;60.214;24.724;2023-04-15T16:05:08;8.00;58.80
23729;DHT22;12045;60.214;24.724;2023-04-15T16:07:36;7.90;59.10
23729;DHT22;12045;60.214;24.724;2023-04-15T16:10:04;8.10;59.80
23729;DHT22;12045;60.214;24.724;2023-04-15T16:12:31;6.50;58.70
23729;DHT22;12045;60.214;24.724;2023-04-15T16:15:01;7.90;59.20
23729;DHT22;12045;60.214;24.724;2023-04-15T16:17:29;7.90;59.30
23729;DHT22;12045;60.214;24.724;2023-04-15T16:19:56;8.30;59.30
23729;DHT22;12045;60.214;24.724;2023-04-15T16:22:27;7.60;58.90
23729;DHT22;12045;60.214;24.724;2023-04-15T16:24:54;7.90;59.40
23729;DHT22;12045;60.214;24.724;2023-04-15T16:27:22;7.90;59.10
23729;DHT22;12045;60.214;24.724;2023-04-15T16:29:49;7.80;58.90
23729;DHT22;12045;60.214;24.724;2023-04-15T16:32:17;7.70;58.90
23729;DHT22;12045;60.214;24.724;2023-04-15T16:34:44;7.70;58.90
23729;DHT22;12045;60.214;24.724;2023-04-15T16:37:12;8.10;59.50
23729;DHT22;12045;60.214;24.724;2023-04-15T16:39:39;8.10;59.00
23729;DHT22;12045;60.214;24.724;2023-04-15T16:42:07;7.50;58.60